createdAt,value
2023-06-03T00:01:54.292Z,14.90
2023-06-03T00:04:23.286Z,14.80
2023-06-03T00:06:51.492Z,14.70
2023-06-03T00:09:20.015Z,14.80
2023-06-03T00:11:48.290Z,14.70
2023-06-03T00:14:16.583Z,14.60
2023-06-03T00:16:47.932Z,14.50
2023-06-03T00:19:18.294Z,14.40
2023-06-03T00:21:55.345Z,14.30
2023-06-03T00:24:24.253Z,14.30
2023-06-03T00:26:52.606Z,14.30
2023-06-03T00:29:21.074Z,14.20
2023-06-03T00:31:49.872Z,14.20
2023-06-03T00:34:19.739Z,14.10
2023-06-03T00:36:48.136Z,14.00
2023-06-03T00:39:16.319Z,14.00
2023-06-03T00:41:44.415Z,13.90
2023-06-03T00:44:12.806Z,13.80
2023-06-03T00:46:41.115Z,13.80
2023-06-03T00:49:09.318Z,13.80
2023-06-03T00:51:39.021Z,13.70
2023-06-03T00:54:27.377Z,13.70
2023-06-03T00:56:55.805Z,13.70
2023-06-03T00:59:23.924Z,13.60
2023-06-03T01:01:52.279Z,13.60
2023-06-03T01:04:26.516Z,13.50
2023-06-03T01:07:08.838Z,13.50
2023-06-03T01:09:48.890Z,13.40
2023-06-03T01:12:24.103Z,13.30
2023-06-03T01:14:56.959Z,13.30
2023-06-03T01:17:29.261Z,13.30
2023-06-03T01:19:59.082Z,13.30
2023-06-03T01:22:29.661Z,13.30
2023-06-03T01:25:09.392Z,13.40
2023-06-03T01:27:39.147Z,13.30
2023-06-03T01:30:10.314Z,13.30
2023-06-03T01:32:39.562Z,13.20
2023-06-03T01:35:10.569Z,13.10
2023-06-03T01:37:51.625Z,13.10
2023-06-03T01:40:22.496Z,13.00
2023-06-03T01:42:50.666Z,12.90
2023-06-03T01:45:18.870Z,12.80
2023-06-03T01:47:47.262Z,12.70
2023-06-03T01:50:17.978Z,12.60
2023-06-03T01:52:46.960Z,12.50
2023-06-03T01:55:15.314Z,12.40
2023-06-03T01:57:47.812Z,12.40
2023-06-03T02:00:18.928Z,12.40
2023-06-03T02:02:47.526Z,12.40
2023-06-03T02:05:18.025Z,12.40
2023-06-03T02:07:46.876Z,12.40
2023-06-03T02:10:15.218Z,12.40
2023-06-03T02:12:45.840Z,12.50
2023-06-03T02:15:14.051Z,12.50
2023-06-03T02:17:43.371Z,12.50
2023-06-03T02:20:25.484Z,12.50
2023-06-03T02:22:55.037Z,12.50
2023-06-03T02:25:23.226Z,12.50
2023-06-03T02:27:56.023Z,12.40
2023-06-03T02:30:32.054Z,12.40
2023-06-03T02:33:00.309Z,12.40
2023-06-03T02:35:28.502Z,12.40
2023-06-03T02:37:57.016Z,12.50
2023-06-03T02:40:25.182Z,12.50
2023-06-03T02:42:54.680Z,12.60
2023-06-03T02:45:22.810Z,12.60
2023-06-03T02:47:51.052Z,12.60
2023-06-03T02:50:19.563Z,12.50
2023-06-03T02:52:47.732Z,12.50
2023-06-03T02:55:17.308Z,12.40
2023-06-03T02:57:45.530Z,12.30
2023-06-03T03:00:16.652Z,12.40
2023-06-03T03:02:45.795Z,12.40
2023-06-03T03:05:14.034Z,12.30
2023-06-03T03:07:42.232Z,12.30
2023-06-03T03:10:11.264Z,12.10
2023-06-03T03:12:39.486Z,12.00
2023-06-03T03:15:09.012Z,12.00
2023-06-03T03:17:38.583Z,12.00
2023-06-03T03:20:07.968Z,11.90
2023-06-03T03:22:36.760Z,12.00
2023-06-03T03:25:05.076Z,12.00
2023-06-03T03:27:33.764Z,12.00
2023-06-03T03:30:02.635Z,12.00
2023-06-03T03:32:31.021Z,12.10
2023-06-03T03:35:14.361Z,12.00
2023-06-03T03:37:43.156Z,12.10
2023-06-03T03:40:18.931Z,12.10
2023-06-03T03:42:50.362Z,12.10
2023-06-03T03:45:19.698Z,12.10
2023-06-03T03:47:50.746Z,12.10
2023-06-03T03:50:36.196Z,12.00
2023-06-03T03:53:08.630Z,12.00
2023-06-03T03:55:42.354Z,12.00
2023-06-03T03:58:27.661Z,12.00
2023-06-03T04:00:58.621Z,12.00
2023-06-03T04:03:29.013Z,12.00
2023-06-03T04:05:59.082Z,11.90
2023-06-03T04:08:41.621Z,11.90
2023-06-03T04:11:14.094Z,12.00
2023-06-03T04:13:43.264Z,12.10
2023-06-03T04:16:13.001Z,12.10
2023-06-03T04:18:42.400Z,12.30
2023-06-03T04:21:18.859Z,12.30
2023-06-03T04:23:47.487Z,12.40
2023-06-03T04:26:17.603Z,12.40
2023-06-03T04:28:45.861Z,12.50
2023-06-03T04:31:36.302Z,12.60
2023-06-03T04:34:04.901Z,12.70
2023-06-03T04:36:36.650Z,12.80
2023-06-03T04:39:06.330Z,13.00
2023-06-03T04:41:35.414Z,13.20
2023-06-03T04:44:03.679Z,13.40
2023-06-03T04:46:33.341Z,13.60
2023-06-03T04:49:02.634Z,13.80
2023-06-03T04:51:38.252Z,13.90
2023-06-03T04:54:06.523Z,14.20
2023-06-03T04:56:34.656Z,14.40
2023-06-03T04:59:11.904Z,14.50
2023-06-03T05:01:40.379Z,14.80
2023-06-03T05:04:10.195Z,14.90
2023-06-03T05:06:41.974Z,15.10
2023-06-03T05:09:11.564Z,15.30
2023-06-03T05:11:52.614Z,15.20
2023-06-03T05:14:20.728Z,15.30
2023-06-03T05:16:48.945Z,15.60
2023-06-03T05:19:17.525Z,15.50
2023-06-03T05:21:47.153Z,15.90
2023-06-03T05:24:15.328Z,16.50
2023-06-03T05:26:52.448Z,16.10
2023-06-03T05:29:20.617Z,16.20
2023-06-03T05:31:53.901Z,16.30
2023-06-03T05:34:22.202Z,16.60
2023-06-03T05:36:53.722Z,17.00
2023-06-03T05:39:21.992Z,17.10
2023-06-03T05:41:50.175Z,17.50
2023-06-03T05:44:18.415Z,17.90
2023-06-03T05:46:46.635Z,17.90
2023-06-03T05:49:14.790Z,17.90
2023-06-03T05:51:43.471Z,17.60
2023-06-03T05:54:13.106Z,17.60
2023-06-03T05:56:41.517Z,17.90
2023-06-03T05:59:09.751Z,17.70
2023-06-03T06:01:37.990Z,17.70
2023-06-03T06:04:10.316Z,17.40
2023-06-03T06:06:38.615Z,17.40
2023-06-03T06:09:15.305Z,17.40
2023-06-03T06:11:45.971Z,17.80
2023-06-03T06:14:14.117Z,18.30
2023-06-03T06:16:42.698Z,18.10
2023-06-03T06:19:10.980Z,18.80
2023-06-03T06:21:39.118Z,19.00
2023-06-03T06:24:08.482Z,19.50
2023-06-03T06:26:46.028Z,19.80
2023-06-03T06:29:14.354Z,19.40
2023-06-03T06:31:42.599Z,19.50
2023-06-03T06:34:19.227Z,19.30
2023-06-03T06:36:50.670Z,19.10
2023-06-03T06:39:50.830Z,18.80
2023-06-03T06:42:30.425Z,19.40
2023-06-03T06:44:59.531Z,19.60
2023-06-03T06:47:29.168Z,19.70
2023-06-03T06:49:59.566Z,19.00
2023-06-03T06:52:28.150Z,19.30
2023-06-03T06:55:01.125Z,19.10
2023-06-03T06:57:31.797Z,19.50
2023-06-03T06:59:59.950Z,19.80
2023-06-03T07:02:32.190Z,19.30
2023-06-03T07:05:00.396Z,19.30
2023-06-03T07:07:28.621Z,19.00
2023-06-03T07:09:56.779Z,19.50
2023-06-03T07:12:24.996Z,19.40
2023-06-03T07:14:54.587Z,19.30
2023-06-03T07:17:22.764Z,20.30
2023-06-03T07:19:51.016Z,20.10
2023-06-03T07:22:20.237Z,20.40
2023-06-03T07:24:48.350Z,20.90
2023-06-03T07:27:28.825Z,20.40
2023-06-03T07:30:00.100Z,20.20
2023-06-03T07:32:28.333Z,20.50
2023-06-03T07:34:56.472Z,21.00
2023-06-03T07:37:24.584Z,21.30
2023-06-03T07:39:52.866Z,20.70
2023-06-03T07:42:23.954Z,20.50
2023-06-03T07:44:52.175Z,20.30
2023-06-03T07:47:26.932Z,21.20
2023-06-03T07:49:59.141Z,20.90
2023-06-03T07:52:27.354Z,21.20
2023-06-03T07:54:55.821Z,21.50
2023-06-03T07:57:23.995Z,20.90
2023-06-03T07:59:54.224Z,20.80
2023-06-03T08:02:24.309Z,19.90
2023-06-03T08:04:54.797Z,20.90
2023-06-03T08:07:23.515Z,20.60
2023-06-03T08:09:51.666Z,20.60
2023-06-03T08:12:25.586Z,21.40
2023-06-03T08:14:59.742Z,22.40
2023-06-03T08:17:40.282Z,21.30
2023-06-03T08:20:11.762Z,21.00
2023-06-03T08:22:43.526Z,20.70
2023-06-03T08:25:12.461Z,21.40
2023-06-03T08:27:40.798Z,22.20
2023-06-03T08:30:10.223Z,22.80
2023-06-03T08:32:40.130Z,23.40
2023-06-03T08:35:09.452Z,22.90
2023-06-03T08:37:37.685Z,22.40
2023-06-03T08:40:09.385Z,21.20
2023-06-03T08:42:43.270Z,21.50
2023-06-03T08:45:13.681Z,21.50
2023-06-03T08:48:01.510Z,22.00
2023-06-03T08:50:30.639Z,21.70
2023-06-03T08:53:01.596Z,22.40
2023-06-03T08:55:30.492Z,22.30
2023-06-03T08:58:13.850Z,21.70
2023-06-03T09:00:42.473Z,22.60
2023-06-03T09:03:14.013Z,23.00
2023-06-03T09:05:44.790Z,23.50
2023-06-03T09:08:14.499Z,23.70
2023-06-03T09:10:50.696Z,22.90
2023-06-03T09:13:20.287Z,23.80
2023-06-03T09:15:48.934Z,24.10
2023-06-03T09:18:18.619Z,24.50
2023-06-03T09:20:46.833Z,24.90
2023-06-03T09:23:15.231Z,24.80
2023-06-03T09:25:44.924Z,24.90
2023-06-03T09:28:13.383Z,24.30
2023-06-03T09:30:42.451Z,23.80
2023-06-03T09:33:14.947Z,23.90
2023-06-03T09:36:19.042Z,24.10
2023-06-03T09:38:49.911Z,24.50
2023-06-03T09:41:19.929Z,25.20
2023-06-03T09:43:58.355Z,25.10
2023-06-03T09:46:27.856Z,25.30
2023-06-03T09:48:56.036Z,25.20
2023-06-03T09:51:42.541Z,24.40
2023-06-03T09:54:16.195Z,24.90
2023-06-03T09:56:46.018Z,24.10
2023-06-03T09:59:17.233Z,25.30
2023-06-03T10:01:48.623Z,24.80
2023-06-03T10:04:21.692Z,24.90
2023-06-03T10:07:08.213Z,25.60
2023-06-03T10:09:36.598Z,25.80
2023-06-03T10:12:05.580Z,25.50
2023-06-03T10:14:33.742Z,25.70
2023-06-03T10:17:07.079Z,25.90
2023-06-03T10:19:36.439Z,25.60
2023-06-03T10:22:07.768Z,24.80
2023-06-03T10:24:37.237Z,25.90
2023-06-03T10:27:06.193Z,25.40
2023-06-03T10:29:37.218Z,25.80
2023-06-03T10:32:17.569Z,25.60
2023-06-03T10:34:48.958Z,25.70
2023-06-03T10:37:18.716Z,26.30
2023-06-03T10:39:47.329Z,25.90
2023-06-03T10:42:15.540Z,26.60
2023-06-03T10:44:43.776Z,27.00
2023-06-03T10:47:23.648Z,26.20
2023-06-03T10:49:57.068Z,27.00
2023-06-03T10:53:01.156Z,26.50
2023-06-03T10:55:38.483Z,26.70
2023-06-03T10:58:16.494Z,26.20
2023-06-03T11:00:58.258Z,26.00
2023-06-03T11:03:29.589Z,26.10
2023-06-03T11:06:40.802Z,27.10
2023-06-03T11:09:14.041Z,27.10
2023-06-03T11:12:07.096Z,26.80
2023-06-03T11:14:54.397Z,26.60
2023-06-03T11:17:29.122Z,27.30
2023-06-03T11:19:59.686Z,27.20
2023-06-03T11:22:44.470Z,26.20
2023-06-03T11:25:30.999Z,27.30
2023-06-03T11:28:38.291Z,26.80
2023-06-03T11:31:08.468Z,27.10
2023-06-03T11:33:37.361Z,26.90
2023-06-03T11:36:57.931Z,26.50
2023-06-03T11:39:26.878Z,27.20
2023-06-03T11:42:11.581Z,27.00
2023-06-03T11:44:43.744Z,27.30
2023-06-03T11:47:14.835Z,28.10
2023-06-03T11:49:45.039Z,28.00
2023-06-03T11:52:38.160Z,28.50
2023-06-03T11:55:07.479Z,28.20
2023-06-03T11:57:38.538Z,28.60
2023-06-03T12:00:11.054Z,27.50
2023-06-03T12:02:40.008Z,27.50
2023-06-03T12:05:09.386Z,27.20
2023-06-03T12:07:54.576Z,27.90
2023-06-03T12:10:22.844Z,28.20
2023-06-03T12:12:53.087Z,28.30
2023-06-03T12:15:22.239Z,27.90
2023-06-03T12:17:55.125Z,27.90
2023-06-03T12:20:27.027Z,27.30
2023-06-03T12:23:01.850Z,27.90
2023-06-03T12:25:30.380Z,28.30
2023-06-03T12:28:00.727Z,28.50
2023-06-03T12:30:32.616Z,29.00
2023-06-03T12:33:01.485Z,29.20
2023-06-03T12:35:38.621Z,28.80
2023-06-03T12:38:07.507Z,28.90
2023-06-03T12:40:37.349Z,29.60
2023-06-03T12:43:07.041Z,29.80
2023-06-03T12:45:36.657Z,29.00
2023-06-03T12:48:05.008Z,29.40
2023-06-03T12:50:34.683Z,29.70
2023-06-03T12:53:15.318Z,29.70
2023-06-03T12:55:43.556Z,29.60
2023-06-03T12:58:13.028Z,29.80
2023-06-03T13:00:41.261Z,30.20
2023-06-03T13:03:09.941Z,30.00
2023-06-03T13:05:38.913Z,29.60
2023-06-03T13:11:06.606Z,29.60
2023-06-03T13:13:36.342Z,29.40
2023-06-03T13:16:04.997Z,29.20
2023-06-03T13:18:33.152Z,29.50
2023-06-03T13:21:01.376Z,29.70
2023-06-03T13:23:51.624Z,29.90
2023-06-03T13:26:30.004Z,29.20
2023-06-03T13:29:05.414Z,29.10
2023-06-03T13:31:45.571Z,29.40
2023-06-03T13:34:13.954Z,29.40
2023-06-03T13:36:45.230Z,29.80
2023-06-03T13:39:25.287Z,29.40
2023-06-03T13:41:54.715Z,28.90
2023-06-03T13:44:24.366Z,29.10
2023-06-03T13:46:53.688Z,29.40
2023-06-03T13:49:25.040Z,29.10
2023-06-03T13:51:53.310Z,29.70
2023-06-03T13:54:22.466Z,29.70
2023-06-03T13:56:55.904Z,29.50
2023-06-03T13:59:27.272Z,29.70
2023-06-03T14:01:56.115Z,29.60
2023-06-03T14:04:26.356Z,29.50
2023-06-03T14:06:55.341Z,29.70
2023-06-03T14:09:34.234Z,29.70
2023-06-03T14:12:02.724Z,30.10
2023-06-03T14:14:32.232Z,29.70
2023-06-03T14:17:00.391Z,29.70
2023-06-03T14:19:28.562Z,29.80
2023-06-03T14:21:56.704Z,29.30
2023-06-03T14:24:24.874Z,29.80
2023-06-03T14:26:53.051Z,29.90
2023-06-03T14:29:21.156Z,30.40
2023-06-03T14:31:50.735Z,30.40
2023-06-03T14:34:19.089Z,30.40
2023-06-03T14:36:47.463Z,30.90
2023-06-03T14:39:17.485Z,30.20
2023-06-03T14:41:46.658Z,29.20
2023-06-03T14:44:19.965Z,29.20
2023-06-03T14:46:48.063Z,29.20
2023-06-03T14:49:17.545Z,29.30
2023-06-03T14:51:45.841Z,29.50
2023-06-03T14:54:13.952Z,30.20
2023-06-03T14:56:42.123Z,30.20
2023-06-03T14:59:10.289Z,29.90
2023-06-03T15:01:38.574Z,29.60
2023-06-03T15:04:20.156Z,29.70
2023-06-03T15:06:50.128Z,29.70
2023-06-03T15:09:18.310Z,30.00
2023-06-03T15:11:46.442Z,29.70
2023-06-03T15:14:14.571Z,29.40
2023-06-03T15:16:42.834Z,29.40
2023-06-03T15:19:11.153Z,29.40
2023-06-03T15:21:40.876Z,29.70
2023-06-03T15:24:09.306Z,29.90
2023-06-03T15:26:40.558Z,30.20
2023-06-03T15:29:08.742Z,30.50
2023-06-03T15:31:37.796Z,30.90
2023-06-03T15:34:06.409Z,30.80
2023-06-03T15:36:34.616Z,30.30
2023-06-03T15:39:04.707Z,30.50
2023-06-03T15:41:32.863Z,30.10
2023-06-03T15:44:01.142Z,29.70
2023-06-03T15:46:29.514Z,29.90
2023-06-03T15:48:57.661Z,29.50
2023-06-03T15:51:26.551Z,29.30
2023-06-03T15:53:54.762Z,29.00
2023-06-03T15:56:24.280Z,29.10
2023-06-03T15:58:52.397Z,29.40
2023-06-03T16:01:21.251Z,29.60
2023-06-03T16:03:49.722Z,29.60
2023-06-03T16:06:17.903Z,29.10
2023-06-03T16:08:46.091Z,29.20
2023-06-03T16:11:14.283Z,28.80
2023-06-03T16:13:43.906Z,28.80
2023-06-03T16:16:14.100Z,28.60
2023-06-03T16:18:42.274Z,28.30
2023-06-03T16:21:11.249Z,28.10
2023-06-03T16:23:39.415Z,28.00
2023-06-03T16:26:08.139Z,28.10
2023-06-03T16:28:36.459Z,28.60
2023-06-03T16:31:06.115Z,28.80
2023-06-03T16:33:37.762Z,28.70
2023-06-03T16:36:17.606Z,29.00
2023-06-03T16:38:46.046Z,29.30
2023-06-03T16:41:14.522Z,28.60
2023-06-03T16:43:42.655Z,27.70
2023-06-03T16:46:12.237Z,27.70
2023-06-03T16:48:40.607Z,27.60
2023-06-03T16:51:08.992Z,28.00
2023-06-03T16:53:37.141Z,27.90
2023-06-03T16:56:06.867Z,28.10
2023-06-03T16:58:35.014Z,27.80
2023-06-03T17:01:03.569Z,27.30
2023-06-03T17:03:33.144Z,26.60
2023-06-03T17:06:01.346Z,26.00
2023-06-03T17:08:29.448Z,25.60
2023-06-03T17:10:57.631Z,25.20
2023-06-03T17:13:26.118Z,25.00
2023-06-03T17:15:54.232Z,24.90
2023-06-03T17:18:22.316Z,25.50
2023-06-03T17:20:51.893Z,25.90
2023-06-03T17:23:20.099Z,26.10
2023-06-03T17:25:48.735Z,26.00
2023-06-03T17:28:18.913Z,25.50
2023-06-03T17:30:47.134Z,25.10
2023-06-03T17:33:15.363Z,24.80
2023-06-03T17:35:43.631Z,24.60
2023-06-03T17:38:13.489Z,24.40
2023-06-03T17:40:41.604Z,24.20
2023-06-03T17:43:09.761Z,24.10
2023-06-03T17:45:37.861Z,24.00
2023-06-03T17:48:06.214Z,23.80
2023-06-03T17:50:34.461Z,23.80
2023-06-03T17:53:03.439Z,23.70
2023-06-03T17:55:33.058Z,23.60
2023-06-03T17:58:01.193Z,23.50
2023-06-03T18:00:29.487Z,23.50
2023-06-03T18:02:57.749Z,23.40
2023-06-03T18:05:26.450Z,23.40
2023-06-03T18:07:54.555Z,23.20
2023-06-03T18:10:22.872Z,23.10
2023-06-03T18:12:52.685Z,23.10
2023-06-03T18:15:20.768Z,22.90
2023-06-03T18:17:48.919Z,22.80
2023-06-03T18:20:17.353Z,22.70
2023-06-03T18:22:45.499Z,22.60
2023-06-03T18:25:13.618Z,22.40
2023-06-03T18:27:41.887Z,22.30
2023-06-03T18:30:14.904Z,22.30
2023-06-03T18:32:43.580Z,22.20
2023-06-03T18:35:20.661Z,22.10
2023-06-03T18:37:49.402Z,22.20
2023-06-03T18:40:17.856Z,22.10
2023-06-03T18:42:46.474Z,22.10
2023-06-03T18:45:16.531Z,22.00
2023-06-03T18:47:45.148Z,22.00
2023-06-03T18:50:13.595Z,21.90
2023-06-03T18:52:41.945Z,21.90
2023-06-03T18:55:10.521Z,21.90
2023-06-03T18:57:39.025Z,21.90
2023-06-03T19:00:08.531Z,21.80
2023-06-03T19:02:38.104Z,21.80
2023-06-03T19:05:07.229Z,21.70
2023-06-03T19:07:35.436Z,21.80
2023-06-03T19:10:03.680Z,21.80
2023-06-03T19:12:31.810Z,21.70
2023-06-03T19:14:59.958Z,21.70
2023-06-03T19:17:28.215Z,21.70
2023-06-03T19:19:58.116Z,21.50
2023-06-03T19:22:26.305Z,21.50
2023-06-03T19:24:54.403Z,21.50
2023-06-03T19:27:22.552Z,21.40
2023-06-03T19:29:50.698Z,21.40
2023-06-03T19:32:18.832Z,21.40
2023-06-03T19:34:46.950Z,21.30
2023-06-03T19:37:16.519Z,21.30
2023-06-03T19:39:44.622Z,21.30
2023-06-03T19:42:12.731Z,21.30
2023-06-03T19:44:42.408Z,21.30
2023-06-03T19:47:10.799Z,21.20
2023-06-03T19:49:40.018Z,21.20
2023-06-03T19:52:08.231Z,21.20
2023-06-03T19:54:37.782Z,21.20
2023-06-03T19:57:08.760Z,21.20
2023-06-03T19:59:36.968Z,21.10
2023-06-03T20:02:05.559Z,21.10
2023-06-03T20:04:35.046Z,21.10
2023-06-03T20:07:03.321Z,21.00
2023-06-03T20:09:31.519Z,21.00
2023-06-03T20:12:01.630Z,21.00
2023-06-03T20:14:29.824Z,21.00
2023-06-03T20:16:58.110Z,20.80
2023-06-03T20:19:26.763Z,20.80
2023-06-03T20:21:55.232Z,20.70
2023-06-03T20:24:23.305Z,20.80
2023-06-03T20:26:51.701Z,20.80
2023-06-03T20:29:21.274Z,20.70
2023-06-03T20:31:53.681Z,20.70
2023-06-03T20:34:22.110Z,20.60
2023-06-03T20:36:50.228Z,20.60
2023-06-03T20:39:18.394Z,20.50
2023-06-03T20:41:46.572Z,20.50
2023-06-03T20:44:14.764Z,20.40
2023-06-03T20:46:44.328Z,20.30
2023-06-03T20:49:12.472Z,20.40
2023-06-03T20:51:42.980Z,20.50
2023-06-03T20:54:11.140Z,20.60
2023-06-03T20:56:39.235Z,20.70
2023-06-03T20:59:07.354Z,20.70
2023-06-03T21:01:36.954Z,20.70
2023-06-03T21:04:06.635Z,20.60
2023-06-03T21:06:34.993Z,20.70
2023-06-03T21:09:03.200Z,20.70
2023-06-03T21:11:31.295Z,20.70
2023-06-03T21:13:59.486Z,20.70
2023-06-03T21:16:27.614Z,20.60
2023-06-03T21:18:55.982Z,20.60
2023-06-03T21:21:25.522Z,20.50
2023-06-03T21:23:53.710Z,20.50
2023-06-03T21:26:22.053Z,20.40
2023-06-03T21:28:50.154Z,20.30
2023-06-03T21:31:18.320Z,20.20
2023-06-03T21:33:46.519Z,20.10
2023-06-03T21:36:14.624Z,20.00
2023-06-03T21:38:44.117Z,20.00
2023-06-03T21:41:12.753Z,20.00
2023-06-03T21:43:41.450Z,19.90
2023-06-03T21:46:09.660Z,19.90
2023-06-03T21:48:38.961Z,19.90
2023-06-03T21:51:07.771Z,19.80
2023-06-03T21:53:36.139Z,19.80
2023-06-03T21:56:07.850Z,19.70
2023-06-03T21:58:36.036Z,19.60
2023-06-03T22:01:04.216Z,19.50
2023-06-03T22:03:32.591Z,19.40
2023-06-03T22:06:00.776Z,19.30
2023-06-03T22:08:28.900Z,19.20
2023-06-03T22:10:57.140Z,19.10
2023-06-03T22:13:26.837Z,19.10
2023-06-03T22:15:55.021Z,19.10
2023-06-03T22:18:23.174Z,19.10
2023-06-03T22:20:57.999Z,19.00
2023-06-03T22:23:26.174Z,19.00
2023-06-03T22:25:55.194Z,18.90
2023-06-03T22:28:23.581Z,18.90
2023-06-03T22:30:53.275Z,18.80
2023-06-03T22:33:21.749Z,18.70
2023-06-03T22:35:50.263Z,18.70
2023-06-03T22:38:18.392Z,18.70
2023-06-03T22:40:51.003Z,18.80
2023-06-03T22:43:19.835Z,18.70
2023-06-03T22:45:48.333Z,18.60
2023-06-03T22:48:18.401Z,18.60
2023-06-03T22:50:46.598Z,18.50
2023-06-03T22:53:14.928Z,18.50
2023-06-03T22:55:46.605Z,18.40
2023-06-03T22:58:14.717Z,18.30
2023-06-03T23:00:57.297Z,18.20
2023-06-03T23:03:26.912Z,18.20
2023-06-03T23:05:57.819Z,18.20
2023-06-03T23:08:25.931Z,18.10
2023-06-03T23:10:54.085Z,18.10
2023-06-03T23:13:22.194Z,18.00
2023-06-03T23:15:50.685Z,17.90
2023-06-03T23:18:18.777Z,17.80
2023-06-03T23:20:49.908Z,17.70
2023-06-03T23:23:20.777Z,17.70
2023-06-03T23:25:50.023Z,17.60
2023-06-03T23:28:18.213Z,17.50
2023-06-03T23:30:46.322Z,17.50
2023-06-03T23:33:14.434Z,17.40
2023-06-03T23:35:42.550Z,17.20
2023-06-03T23:38:12.096Z,17.10
2023-06-03T23:40:40.213Z,17.00
2023-06-03T23:43:08.494Z,16.80
2023-06-03T23:45:36.586Z,16.80
2023-06-03T23:48:04.971Z,16.70
2023-06-03T23:50:33.181Z,16.60
2023-06-03T23:53:01.366Z,16.50
2023-06-03T23:55:30.852Z,16.50
2023-06-03T23:58:00.326Z,16.40
